createdAt,value
2023-01-04T00:02:24.538Z,35.40
2023-01-04T00:04:56.527Z,36.30
2023-01-04T00:07:29.791Z,34.60
2023-01-04T00:10:01.761Z,34.20
2023-01-04T00:12:33.715Z,33.30
2023-01-04T00:15:06.387Z,35.10
2023-01-04T00:17:38.203Z,33.90
2023-01-04T00:20:17.823Z,31.00
2023-01-04T00:22:56.218Z,32.40
2023-01-04T00:25:28.148Z,34.00
2023-01-04T00:27:59.955Z,32.70
2023-01-04T00:30:31.822Z,33.40
2023-01-04T00:33:03.630Z,34.10
2023-01-04T00:35:45.813Z,31.50
2023-01-04T00:38:18.271Z,33.20
2023-01-04T00:40:50.122Z,33.00
2023-01-04T00:43:21.923Z,32.40
2023-01-04T00:45:54.256Z,30.30
2023-01-04T00:48:26.586Z,31.70
2023-01-04T00:51:00.024Z,30.80
2023-01-04T00:53:31.818Z,31.80
2023-01-04T00:56:03.947Z,30.60
2023-01-04T00:58:35.788Z,29.70
2023-01-04T01:01:10.041Z,30.70
2023-01-04T01:03:43.743Z,30.20
2023-01-04T01:06:15.708Z,31.00
2023-01-04T01:08:47.565Z,31.40
2023-01-04T01:11:19.660Z,30.30
2023-01-04T01:13:51.979Z,31.40
2023-01-04T01:16:53.098Z,30.30
2023-01-04T01:19:17.509Z,30.20
2023-01-04T01:21:49.512Z,30.10
2023-01-04T01:24:22.533Z,29.30
2023-01-04T01:26:54.928Z,30.80
2023-01-04T01:29:27.026Z,28.00
2023-01-04T01:31:58.990Z,29.00
2023-01-04T01:34:30.840Z,30.50
2023-01-04T01:37:03.235Z,29.30
2023-01-04T01:39:35.032Z,28.70
2023-01-04T01:42:06.935Z,29.10
2023-01-04T01:45:02.675Z,28.20
2023-01-04T01:47:44.364Z,27.30
2023-01-04T01:50:29.593Z,28.00
2023-01-04T01:53:02.945Z,28.30
2023-01-04T01:55:37.757Z,27.80
2023-01-04T01:58:13.815Z,26.60
2023-01-04T02:00:45.617Z,26.90
2023-01-04T02:03:20.682Z,27.60
2023-01-04T02:05:55.274Z,26.40
2023-01-04T02:08:28.568Z,27.30
2023-01-04T02:11:00.815Z,27.00
2023-01-04T02:13:49.012Z,25.90
2023-01-04T02:16:32.657Z,26.00
2023-01-04T02:19:22.797Z,26.40
2023-01-04T02:22:19.147Z,25.30
2023-01-04T02:25:10.819Z,24.70
2023-01-04T02:27:50.396Z,25.50
2023-01-04T02:31:10.983Z,24.60
2023-01-04T02:33:50.308Z,25.80
2023-01-04T02:36:30.334Z,24.80
2023-01-04T02:39:12.230Z,23.70
2023-01-04T02:41:49.118Z,25.10
2023-01-04T02:44:44.273Z,24.90
2023-01-04T02:47:41.681Z,23.90
2023-01-04T02:50:33.285Z,22.70
2023-01-04T02:53:09.836Z,24.30
2023-01-04T02:55:52.872Z,23.20
2023-01-04T02:58:45.216Z,22.90
2023-01-04T03:01:40.937Z,23.20
2023-01-04T03:04:46.240Z,23.50
2023-01-04T03:07:27.328Z,23.40
2023-01-04T03:10:13.400Z,22.90
2023-01-04T03:12:51.600Z,22.50
2023-01-04T03:15:27.726Z,22.00
2023-01-04T03:18:03.324Z,23.80
2023-01-04T03:20:35.907Z,22.10
2023-01-04T03:23:27.179Z,22.80
2023-01-04T03:29:11.394Z,21.20
2023-01-04T03:32:05.883Z,21.70
2023-01-04T03:34:55.823Z,21.40
2023-01-04T03:37:31.808Z,22.30
2023-01-04T03:40:43.292Z,20.70
2023-01-04T03:43:37.515Z,19.90
2023-01-04T03:46:32.444Z,19.70
2023-01-04T03:49:11.659Z,20.00
2023-01-04T03:51:44.132Z,18.20
2023-01-04T03:54:21.090Z,18.60
2023-01-04T03:56:54.333Z,20.10
2023-01-04T03:59:27.102Z,19.10
2023-01-04T04:01:59.501Z,19.00
2023-01-04T04:04:49.179Z,17.20
2023-01-04T04:07:38.836Z,17.40
2023-01-04T04:10:25.345Z,16.40
2023-01-04T04:12:57.206Z,16.00
2023-01-04T04:15:29.306Z,17.20
2023-01-04T04:18:01.074Z,15.50
2023-01-04T04:20:32.952Z,16.50
2023-01-04T04:23:04.920Z,17.30
2023-01-04T04:25:36.786Z,17.10
2023-01-04T04:28:10.151Z,16.30
2023-01-04T04:30:42.059Z,16.70
2023-01-04T04:33:13.840Z,16.80
2023-01-04T04:35:45.703Z,16.10
2023-01-04T04:38:17.516Z,16.80
2023-01-04T04:41:07.219Z,15.90
2023-01-04T04:43:39.148Z,15.90
2023-01-04T04:46:11.218Z,14.00
2023-01-04T04:48:43.097Z,13.40
2023-01-04T04:51:15.233Z,14.90
2023-01-04T04:53:47.303Z,14.10
2023-01-04T04:56:19.289Z,13.10
2023-01-04T04:58:51.510Z,14.10
2023-01-04T05:01:23.678Z,13.20
2023-01-04T05:03:55.686Z,11.80
2023-01-04T05:06:27.737Z,12.90
2023-01-04T05:08:59.767Z,12.60
2023-01-04T05:11:49.067Z,12.70
2023-01-04T05:14:20.856Z,11.10
2023-01-04T05:16:52.817Z,11.10
2023-01-04T05:19:24.834Z,11.40
2023-01-04T05:21:56.669Z,11.00
2023-01-04T05:24:28.484Z,11.00
2023-01-04T05:27:00.377Z,10.80
2023-01-04T05:29:49.951Z,10.00
2023-01-04T05:32:21.830Z,9.00
2023-01-04T05:34:53.699Z,10.70
2023-01-04T05:37:25.987Z,10.90
2023-01-04T05:39:57.806Z,10.70
2023-01-04T05:42:29.725Z,11.10
2023-01-04T05:45:01.853Z,9.90
2023-01-04T05:47:33.723Z,10.10
2023-01-04T05:50:13.511Z,8.70
2023-01-04T05:52:45.439Z,9.70
2023-01-04T05:55:17.284Z,9.10
2023-01-04T05:57:49.201Z,8.80
2023-01-04T06:00:27.965Z,11.20
2023-01-04T06:03:00.162Z,12.60
2023-01-04T06:05:32.137Z,12.80
2023-01-04T06:08:03.979Z,13.90
2023-01-04T06:10:35.827Z,15.20
2023-01-04T06:13:07.739Z,13.60
2023-01-04T06:15:43.232Z,13.90
2023-01-04T06:18:15.377Z,13.70
2023-01-04T06:20:47.225Z,12.00
2023-01-04T06:23:19.127Z,11.90
2023-01-04T06:25:50.890Z,12.30
2023-01-04T06:28:22.758Z,11.40
2023-01-04T06:30:54.657Z,12.70
2023-01-04T06:33:26.811Z,13.80
2023-01-04T06:35:58.812Z,14.60
2023-01-04T06:38:31.568Z,14.00
2023-01-04T06:41:03.719Z,14.90
2023-01-04T06:43:35.603Z,17.00
2023-01-04T06:46:07.767Z,30.10
2023-01-04T06:48:39.654Z,36.40
2023-01-04T06:51:11.556Z,31.30
2023-01-04T06:53:43.469Z,28.30
2023-01-04T06:56:16.077Z,24.40
2023-01-04T06:58:48.137Z,24.70
2023-01-04T07:01:20.076Z,21.40
2023-01-04T07:03:52.115Z,27.80
2023-01-04T07:06:23.983Z,28.10
2023-01-04T07:08:56.137Z,26.70
2023-01-04T07:11:29.327Z,23.70
2023-01-04T07:14:02.915Z,16.40
2023-01-04T07:16:35.901Z,13.70
2023-01-04T07:19:09.189Z,10.70
2023-01-04T07:21:41.037Z,10.50
2023-01-04T07:24:13.302Z,9.70
2023-01-04T07:26:45.226Z,10.60
2023-01-04T07:29:18.050Z,14.70
2023-01-04T07:31:51.756Z,13.80
2023-01-04T07:34:25.630Z,15.00
2023-01-04T07:36:57.509Z,14.70
2023-01-04T07:39:29.316Z,12.10
2023-01-04T07:42:01.199Z,11.20
2023-01-04T07:44:33.245Z,8.90
2023-01-04T07:47:05.255Z,7.40
2023-01-04T07:49:37.186Z,7.20
2023-01-04T07:52:09.042Z,7.00
2023-01-04T07:54:40.931Z,7.30
2023-01-04T07:57:12.770Z,6.90
2023-01-04T07:59:44.844Z,7.40
2023-01-04T08:02:17.518Z,6.70
2023-01-04T08:04:49.710Z,6.60
2023-01-04T08:07:21.650Z,6.40
2023-01-04T08:09:53.573Z,6.70
2023-01-04T08:12:25.419Z,7.50
2023-01-04T08:14:57.551Z,7.20
2023-01-04T08:17:29.385Z,6.50
2023-01-04T08:20:01.678Z,6.50
2023-01-04T08:22:35.805Z,5.90
2023-01-04T08:25:11.278Z,6.60
2023-01-04T08:27:43.355Z,6.30
2023-01-04T08:30:25.350Z,6.80
2023-01-04T08:32:57.369Z,6.90
2023-01-04T08:35:29.215Z,7.30
2023-01-04T08:38:28.444Z,6.50
2023-01-04T08:40:59.964Z,6.40
2023-01-04T08:43:36.953Z,7.00
2023-01-04T08:46:09.586Z,7.40
2023-01-04T08:48:42.000Z,7.00
2023-01-04T08:51:20.611Z,6.80
2023-01-04T08:53:53.142Z,6.50
2023-01-04T08:56:25.032Z,6.70
2023-01-04T08:58:56.873Z,6.70
2023-01-04T09:01:29.027Z,6.80
2023-01-04T09:04:01.409Z,6.30
2023-01-04T09:06:33.560Z,7.60
2023-01-04T09:09:05.468Z,7.10
2023-01-04T09:11:38.757Z,6.50
2023-01-04T09:14:11.222Z,7.20
2023-01-04T09:16:43.148Z,7.10
2023-01-04T09:19:21.373Z,6.60
2023-01-04T09:21:54.080Z,5.90
2023-01-04T09:24:26.147Z,6.20
2023-01-04T09:26:58.000Z,6.40
2023-01-04T09:29:29.881Z,6.50
2023-01-04T09:32:02.662Z,6.10
2023-01-04T09:34:34.577Z,6.20
2023-01-04T09:37:06.426Z,6.20
2023-01-04T09:39:38.287Z,6.60
2023-01-04T09:42:19.007Z,6.70
2023-01-04T09:45:23.148Z,6.50
2023-01-04T09:47:55.894Z,7.20
2023-01-04T09:50:33.093Z,6.30
2023-01-04T09:53:11.437Z,6.30
2023-01-04T09:55:48.221Z,6.50
2023-01-04T09:58:29.295Z,6.30
2023-01-04T10:01:06.748Z,5.70
2023-01-04T10:03:40.974Z,6.40
2023-01-04T10:06:15.888Z,6.50
2023-01-04T10:08:47.792Z,6.70
2023-01-04T10:11:32.859Z,6.40
2023-01-04T10:14:23.346Z,6.20
2023-01-04T10:17:14.260Z,6.40
2023-01-04T10:23:31.728Z,6.50
2023-01-04T10:26:18.784Z,7.50
2023-01-04T10:29:15.800Z,7.60
2023-01-04T10:31:53.638Z,7.70
2023-01-04T10:34:31.520Z,7.50
2023-01-04T10:37:17.569Z,9.10
2023-01-04T10:39:51.882Z,9.20
2023-01-04T10:42:32.946Z,7.60
2023-01-04T10:45:15.232Z,8.30
2023-01-04T10:47:58.341Z,8.20
2023-01-04T10:50:37.785Z,7.70
2023-01-04T10:53:18.163Z,7.40
2023-01-04T10:56:26.117Z,8.50
2023-01-04T10:58:52.528Z,8.30
2023-01-04T11:01:30.988Z,8.30
2023-01-04T11:04:10.092Z,7.90
2023-01-04T11:06:48.224Z,8.70
2023-01-04T11:09:25.675Z,7.30
2023-01-04T11:11:59.111Z,8.20
2023-01-04T11:14:37.010Z,7.40
2023-01-04T11:17:12.139Z,7.70
2023-01-04T11:19:44.508Z,7.50
2023-01-04T11:22:21.038Z,7.80
2023-01-04T11:27:52.705Z,7.80
2023-01-04T11:30:43.789Z,7.70
2023-01-04T11:33:18.882Z,7.10
2023-01-04T11:35:53.360Z,7.60
2023-01-04T11:38:27.740Z,7.60
2023-01-04T11:41:02.445Z,7.70
2023-01-04T11:43:35.136Z,7.70
2023-01-04T11:46:22.322Z,7.50
2023-01-04T11:48:54.920Z,7.20
2023-01-04T11:51:41.350Z,7.90
2023-01-04T11:54:22.447Z,7.50
2023-01-04T11:57:11.664Z,7.40
2023-01-04T11:59:44.306Z,7.00
2023-01-04T12:03:00.694Z,7.00
2023-01-04T12:05:29.732Z,6.70
2023-01-04T12:08:02.373Z,6.70
2023-01-04T12:10:34.910Z,6.60
2023-01-04T12:13:10.701Z,6.90
2023-01-04T12:15:49.367Z,6.70
2023-01-04T12:18:28.090Z,9.00
2023-01-04T12:21:02.420Z,8.30
2023-01-04T12:23:35.733Z,8.00
2023-01-04T12:26:08.849Z,7.70
2023-01-04T12:28:42.341Z,7.50
2023-01-04T12:31:34.229Z,7.20
2023-01-04T12:34:36.607Z,7.40
2023-01-04T12:37:09.084Z,7.20
2023-01-04T12:39:47.629Z,7.10
2023-01-04T12:42:26.946Z,7.10
2023-01-04T12:45:16.060Z,7.00
2023-01-04T12:48:06.795Z,6.90
2023-01-04T12:51:32.798Z,6.60
2023-01-04T12:54:06.753Z,7.70
2023-01-04T12:57:25.397Z,7.50
2023-01-04T13:00:03.025Z,6.80
2023-01-04T13:02:44.138Z,7.20
2023-01-04T13:05:56.232Z,7.10
2023-01-04T13:08:42.827Z,6.30
2023-01-04T13:11:32.954Z,6.50
2023-01-04T13:14:09.481Z,6.60
2023-01-04T13:16:48.312Z,6.70
2023-01-04T13:19:24.896Z,8.10
2023-01-04T13:21:57.383Z,6.00
2023-01-04T13:24:32.183Z,6.70
2023-01-04T13:27:10.354Z,6.70
2023-01-04T13:29:43.637Z,6.70
2023-01-04T13:32:19.717Z,6.20
2023-01-04T13:34:54.469Z,5.80
2023-01-04T13:37:38.086Z,6.30
2023-01-04T13:40:28.006Z,6.40
2023-01-04T13:43:18.799Z,5.50
2023-01-04T13:46:06.538Z,5.80
2023-01-04T13:48:41.239Z,5.90
2023-01-04T13:51:19.233Z,6.60
2023-01-04T13:53:58.446Z,5.90
2023-01-04T13:56:32.552Z,5.80
2023-01-04T13:59:04.724Z,5.80
2023-01-04T14:01:41.725Z,5.50
2023-01-04T14:04:22.507Z,6.00
2023-01-04T14:06:57.876Z,5.30
2023-01-04T14:09:33.272Z,5.80
2023-01-04T14:12:15.167Z,6.10
2023-01-04T14:14:52.626Z,6.10
2023-01-04T14:17:35.257Z,5.70
2023-01-04T14:20:30.492Z,6.60
2023-01-04T14:23:02.377Z,6.00
2023-01-04T14:25:56.508Z,6.10
2023-01-04T14:28:49.702Z,7.10
2023-01-04T14:31:31.332Z,7.90
2023-01-04T14:36:40.481Z,7.20
2023-01-04T14:39:36.229Z,7.10
2023-01-04T14:42:24.235Z,6.50
2023-01-04T14:44:57.105Z,6.50
2023-01-04T14:47:29.045Z,6.60
2023-01-04T14:50:00.970Z,6.90
2023-01-04T14:52:32.797Z,5.70
2023-01-04T14:55:05.718Z,6.30
2023-01-04T14:57:43.364Z,6.20
2023-01-04T15:00:20.843Z,6.50
2023-01-04T15:02:52.803Z,6.20
2023-01-04T15:05:24.868Z,5.90
2023-01-04T15:07:56.682Z,6.20
2023-01-04T15:10:35.272Z,6.40
2023-01-04T15:13:07.526Z,6.50
2023-01-04T15:15:39.448Z,6.60
2023-01-04T15:18:11.302Z,7.40
2023-01-04T15:20:43.585Z,6.30
2023-01-04T15:23:15.700Z,6.40
2023-01-04T15:25:48.330Z,5.30
2023-01-04T15:28:21.773Z,4.60
2023-01-04T15:30:53.799Z,5.00
2023-01-04T15:33:27.300Z,5.00
2023-01-04T15:36:03.279Z,4.70
2023-01-04T15:38:35.482Z,5.00
2023-01-04T15:41:10.819Z,4.70
2023-01-04T15:43:42.799Z,4.50
2023-01-04T15:46:14.754Z,4.30
2023-01-04T15:48:47.018Z,4.00
2023-01-04T15:51:19.099Z,5.30
2023-01-04T15:53:54.491Z,4.50
2023-01-04T15:56:26.741Z,4.50
2023-01-04T15:58:58.501Z,4.10
2023-01-04T16:01:30.407Z,4.80
2023-01-04T16:04:02.717Z,4.70
2023-01-04T16:06:34.631Z,6.40
2023-01-04T16:09:06.975Z,7.50
2023-01-04T16:11:59.193Z,5.60
2023-01-04T16:14:31.133Z,5.20
2023-01-04T16:17:03.077Z,5.70
2023-01-04T16:19:35.165Z,6.00
2023-01-04T16:22:06.996Z,6.50
2023-01-04T16:25:09.820Z,4.50
2023-01-04T16:27:35.411Z,4.90
2023-01-04T16:30:17.003Z,5.20
2023-01-04T16:35:19.555Z,4.40
2023-01-04T16:37:51.402Z,4.30
2023-01-04T16:40:31.965Z,4.30
2023-01-04T16:43:03.859Z,4.90
2023-01-04T16:45:35.902Z,4.60
2023-01-04T16:48:14.895Z,4.10
2023-01-04T16:50:49.959Z,4.20
2023-01-04T16:53:21.949Z,4.20
2023-01-04T16:55:53.807Z,4.10
2023-01-04T16:58:25.644Z,4.40
2023-01-04T17:00:57.424Z,4.60
2023-01-04T17:03:29.508Z,5.60
2023-01-04T17:06:01.444Z,8.10
2023-01-04T17:08:33.333Z,5.50
2023-01-04T17:14:02.032Z,4.70
2023-01-04T17:16:35.258Z,4.60
2023-01-04T17:19:07.654Z,4.60
2023-01-04T17:21:39.590Z,5.40
2023-01-04T17:24:12.677Z,4.90
2023-01-04T17:26:44.820Z,4.50
2023-01-04T17:29:17.049Z,4.90
2023-01-04T17:31:49.251Z,5.00
2023-01-04T17:34:23.306Z,4.20
2023-01-04T17:36:55.287Z,5.20
2023-01-04T17:39:27.188Z,5.00
2023-01-04T17:41:59.023Z,4.60
2023-01-04T17:44:31.102Z,4.40
2023-01-04T17:47:02.960Z,4.00
2023-01-04T17:49:34.800Z,4.50
2023-01-04T17:52:08.803Z,3.90
2023-01-04T17:54:41.008Z,5.00
2023-01-04T17:57:12.818Z,4.20
2023-01-04T17:59:44.642Z,4.80
2023-01-04T18:02:16.648Z,5.00
2023-01-04T18:04:48.647Z,5.00
2023-01-04T18:07:24.992Z,4.20
2023-01-04T18:09:57.841Z,5.20
2023-01-04T18:12:30.600Z,4.70
2023-01-04T18:15:06.501Z,4.60
2023-01-04T18:17:38.402Z,5.40
2023-01-04T18:23:25.407Z,4.10
2023-01-04T18:26:01.959Z,4.80
2023-01-04T18:28:33.823Z,4.50
2023-01-04T18:31:15.039Z,4.40
2023-01-04T18:33:54.833Z,4.20
2023-01-04T18:36:31.993Z,5.10
2023-01-04T18:39:04.551Z,4.30
2023-01-04T18:41:36.444Z,3.70
2023-01-04T18:44:31.412Z,4.10
2023-01-04T18:47:00.368Z,3.30
2023-01-04T18:49:32.516Z,4.50
2023-01-04T18:52:04.451Z,4.00
2023-01-04T18:54:36.312Z,4.30
2023-01-04T18:57:08.214Z,4.20
2023-01-04T18:59:40.244Z,4.00
2023-01-04T19:02:17.008Z,4.30
2023-01-04T19:04:49.541Z,3.70
2023-01-04T19:07:21.358Z,3.70
2023-01-04T19:09:53.173Z,3.80
2023-01-04T19:12:24.974Z,3.50
2023-01-04T19:14:57.108Z,3.60
2023-01-04T19:17:28.958Z,3.60
2023-01-04T19:20:00.772Z,3.10
2023-01-04T19:22:34.688Z,3.90
2023-01-04T19:25:08.327Z,3.70
2023-01-04T19:27:40.504Z,3.00
2023-01-04T19:30:18.931Z,3.50
2023-01-04T19:32:50.811Z,3.10
2023-01-04T19:35:22.654Z,3.10
2023-01-04T19:37:54.481Z,4.20
2023-01-04T19:40:34.051Z,3.20
2023-01-04T19:43:06.262Z,3.30
2023-01-04T19:45:41.849Z,3.10
2023-01-04T19:48:13.753Z,2.80
2023-01-04T19:50:45.740Z,3.80
2023-01-04T19:53:17.601Z,3.50
2023-01-04T19:55:49.526Z,2.80
2023-01-04T19:58:21.399Z,3.00
2023-01-04T20:00:55.256Z,2.90
2023-01-04T20:03:27.402Z,3.70
2023-01-04T20:06:04.700Z,2.70
2023-01-04T20:08:36.644Z,2.40
2023-01-04T20:11:08.613Z,2.80
2023-01-04T20:13:40.962Z,2.70
2023-01-04T20:16:13.285Z,3.00
2023-01-04T20:18:45.157Z,2.90
2023-01-04T20:21:17.673Z,2.10
2023-01-04T20:23:49.577Z,2.00
2023-01-04T20:26:22.412Z,2.30
2023-01-04T20:28:54.597Z,2.40
2023-01-04T20:31:26.614Z,2.10
2023-01-04T20:33:58.681Z,2.20
2023-01-04T20:36:30.504Z,2.10
2023-01-04T20:39:04.208Z,1.90
2023-01-04T20:41:36.063Z,1.60
2023-01-04T20:44:08.221Z,2.00
2023-01-04T20:46:43.468Z,1.60
2023-01-04T20:49:18.514Z,2.00
2023-01-04T20:51:50.413Z,2.30
2023-01-04T20:54:22.283Z,2.00
2023-01-04T20:56:54.061Z,1.90
2023-01-04T20:59:25.948Z,2.40
2023-01-04T21:01:57.956Z,1.80
2023-01-04T21:04:31.953Z,1.50
2023-01-04T21:07:03.844Z,1.70
2023-01-04T21:09:36.034Z,1.90
2023-01-04T21:12:08.777Z,1.80
2023-01-04T21:14:41.018Z,2.30
2023-01-04T21:17:12.816Z,1.70
2023-01-04T21:19:44.643Z,1.80
2023-01-04T21:22:16.422Z,1.70
2023-01-04T21:24:48.268Z,1.50
2023-01-04T21:27:20.138Z,1.60
2023-01-04T21:29:52.203Z,1.70
2023-01-04T21:32:24.150Z,1.50
2023-01-04T21:34:57.142Z,1.50
2023-01-04T21:37:29.085Z,1.60
2023-01-04T21:40:00.964Z,1.60
2023-01-04T21:42:33.003Z,1.40
2023-01-04T21:45:05.265Z,1.40
2023-01-04T21:47:37.922Z,1.30
2023-01-04T21:50:17.251Z,1.30
2023-01-04T21:52:56.144Z,2.10
2023-01-04T21:55:33.932Z,1.20
2023-01-04T21:58:06.556Z,1.50
2023-01-04T22:00:39.784Z,1.10
2023-01-04T22:03:11.828Z,1.30
2023-01-04T22:05:43.823Z,1.10
2023-01-04T22:08:15.675Z,1.30
2023-01-04T22:10:53.255Z,1.30
2023-01-04T22:13:25.825Z,1.40
2023-01-04T22:15:57.851Z,1.40
2023-01-04T22:18:29.685Z,1.20
2023-01-04T22:21:09.881Z,1.20
2023-01-04T22:23:41.913Z,1.20
2023-01-04T22:26:13.922Z,1.40
2023-01-04T22:28:46.057Z,1.50
2023-01-04T22:31:18.964Z,1.90
2023-01-04T22:33:50.841Z,2.00
2023-01-04T22:36:23.763Z,1.70
2023-01-04T22:38:57.521Z,1.70
2023-01-04T22:41:30.219Z,1.70
2023-01-04T22:44:03.651Z,1.50
2023-01-04T22:46:36.546Z,2.00
2023-01-04T22:49:08.466Z,1.80
2023-01-04T22:51:41.415Z,1.70
2023-01-04T22:54:13.237Z,1.80
2023-01-04T22:56:45.101Z,1.90
2023-01-04T22:59:16.967Z,1.80
2023-01-04T23:01:48.802Z,1.90
2023-01-04T23:04:20.907Z,1.80
2023-01-04T23:06:52.856Z,1.70
2023-01-04T23:09:24.827Z,1.80
2023-01-04T23:11:56.676Z,2.00
2023-01-04T23:14:28.678Z,2.00
2023-01-04T23:17:00.642Z,1.30
2023-01-04T23:19:34.518Z,1.60
2023-01-04T23:22:06.405Z,1.50
2023-01-04T23:24:39.680Z,1.30
2023-01-04T23:27:11.459Z,1.70
2023-01-04T23:29:43.372Z,1.30
2023-01-04T23:32:15.236Z,1.20
2023-01-04T23:34:47.358Z,1.60
2023-01-04T23:37:20.025Z,1.40
2023-01-04T23:39:53.134Z,1.50
2023-01-04T23:42:24.973Z,1.40
2023-01-04T23:44:56.855Z,1.70
2023-01-04T23:47:28.706Z,1.30
2023-01-04T23:50:00.571Z,1.40
2023-01-04T23:52:32.563Z,1.50
2023-01-04T23:55:04.488Z,1.50
2023-01-04T23:57:36.369Z,1.50
